« 趣味的航空路誌改訂情報 2019/7/18 thu | トップページ | 定点 富山空港 2019/7/20 sat »

2019/07/18

定点 富山空港 2019/7/17 wed

射水の水中処分船公開から転戦。ラジオを聴きながら、どこに着地するか?

RJNT 170100Z 36006KT 330V040 9999 SCT020 BKN070 27/21 Q1013

20190717_rjnt_00ja140a

315かサークリングRW02

20190717_rjnt_01ja140a

噴流に包まれたい

20190717_rjnt_02ja140a

ANA315 RJTT-RJNT JA140A A321-272N

20190717_rjnt_03ja140a

20190717_rjnt_04ja140a

20190717_rjnt_05ja140a

先週末からA321が入ってます。

20190717_rjnt_06ja6768

321の後を追って防災さんがアプローチ

20190717_rjnt_07ja6768

JA6768 B412EP 富山県消防防災

20190717_rjnt_08b9916

背風でもRW20ランディングの南方さん

20190717_rjnt_09b9916

20190717_rjnt_10b9916

でも止まりきれないので、ころがってくれます。

20190717_rjnt_11b9916

CSN613 ZYTL-RJNT B-9916 A320-232

20190717_rjnt_12b9916

RJNT 170200Z VRB03KT 9999 FEW015 SCT020 27/21 Q1013

20190717_rjnt_13ja139t

富山県最強 随分ツイッターを見てもらったようです。

20190717_rjnt_14ja139t

JA139T AW139 富山県警察 JA6768

入換の合間にしか見れない風景

20190717_rjnt_15ja139t

この日から山岳遭難救助訓練が始まりました。小松救難隊も参加してるよ。

20190717_rjnt_16ja140a

ANA1181 RJNT-RJCC JA140A A321-272N

20190717_rjnt_17ja140a

北の空に雲の切れ間

20190717_rjnt_18b9916

CSN614 RJNT-ZYTL B-9916 A320-232

20190717_rjnt_19b9916

青空ジェット

|

« 趣味的航空路誌改訂情報 2019/7/18 thu | トップページ | 定点 富山空港 2019/7/20 sat »

富山空港」カテゴリの記事

コメント

コメントを書く



(ウェブ上には掲載しません)


コメントは記事投稿者が公開するまで表示されません。



« 趣味的航空路誌改訂情報 2019/7/18 thu | トップページ | 定点 富山空港 2019/7/20 sat »